createdAt,value
2023-04-03T00:01:54.618Z,102303.44
2023-04-03T00:04:23.920Z,102306.91
2023-04-03T00:06:50.317Z,102302.16
2023-04-03T00:09:16.709Z,102306.25
2023-04-03T00:11:45.929Z,102305.22
2023-04-03T00:14:12.304Z,102306.59
2023-04-03T00:16:38.762Z,102303.03
2023-04-03T00:19:05.213Z,102310.22
2023-04-03T00:21:31.603Z,102305.00
2023-04-03T00:23:57.978Z,102308.53
2023-04-03T00:26:24.340Z,102301.78
2023-04-03T00:28:50.730Z,102311.94
2023-04-03T00:31:17.439Z,102305.41
2023-04-03T00:33:43.889Z,102304.31
2023-04-03T00:36:10.396Z,102305.06
2023-04-03T00:38:36.943Z,102296.53
2023-04-03T00:41:03.354Z,102295.63
2023-04-03T00:43:32.597Z,102294.31
2023-04-03T00:45:59.306Z,102302.91
2023-04-03T00:48:25.888Z,102298.13
2023-04-03T00:50:52.265Z,102299.81
2023-04-03T00:53:18.712Z,102306.69
2023-04-03T00:55:45.775Z,102299.31
2023-04-03T00:58:14.966Z,102303.22
2023-04-03T01:00:41.360Z,102310.91
2023-04-03T01:03:07.753Z,102302.53
2023-04-03T01:05:35.602Z,102305.88
2023-04-03T01:08:02.007Z,102313.09
2023-04-03T01:10:31.800Z,102315.03
2023-04-03T01:12:58.738Z,102320.94
2023-04-03T01:15:25.509Z,102318.78
2023-04-03T01:17:52.369Z,102314.09
2023-04-03T01:20:21.641Z,102312.31
2023-04-03T01:22:48.437Z,102318.38
2023-04-03T01:25:14.856Z,102319.78
2023-04-03T01:27:41.489Z,102324.75
2023-04-03T01:30:08.123Z,102325.31
2023-04-03T01:32:38.617Z,102319.69
2023-04-03T01:35:05.087Z,102326.94
2023-04-03T01:37:31.720Z,102332.34
2023-04-03T01:39:58.182Z,102330.06
2023-04-03T01:42:24.686Z,102334.28
2023-04-03T01:44:51.153Z,102335.03
2023-04-03T01:47:17.557Z,102331.53
2023-04-03T01:49:49.391Z,102332.72
2023-04-03T01:52:15.857Z,102336.00
2023-04-03T01:54:42.406Z,102337.19
2023-04-03T01:57:08.978Z,102336.69
2023-04-03T01:59:36.106Z,102331.47
2023-04-03T02:02:02.623Z,102337.63
2023-04-03T02:04:29.148Z,102328.41
2023-04-03T02:06:55.818Z,102337.88
2023-04-03T02:09:22.275Z,102330.66
2023-04-03T02:11:49.202Z,102337.75
2023-04-03T02:14:15.783Z,102340.88
2023-04-03T02:16:42.258Z,102344.78
2023-04-03T02:19:08.834Z,102347.16
2023-04-03T02:21:35.235Z,102348.53
2023-04-03T02:24:01.694Z,102352.34
2023-04-03T02:26:28.118Z,102348.63
2023-04-03T02:28:54.517Z,102344.75
2023-04-03T02:31:22.038Z,102346.94
2023-04-03T02:33:48.698Z,102350.28
2023-04-03T02:36:16.035Z,102338.44
2023-04-03T02:38:46.594Z,102342.69
2023-04-03T02:41:13.242Z,102348.19
2023-04-03T02:43:40.185Z,102342.78
2023-04-03T02:46:06.884Z,102339.28
2023-04-03T02:48:33.392Z,102349.38
2023-04-03T02:50:59.804Z,102347.53
2023-04-03T02:53:26.193Z,102345.75
2023-04-03T02:55:52.668Z,102350.75
2023-04-03T02:58:19.231Z,102343.66
2023-04-03T03:00:45.881Z,102355.81
2023-04-03T03:03:12.452Z,102361.44
2023-04-03T03:05:38.912Z,102364.72
2023-04-03T03:08:06.022Z,102362.22
2023-04-03T03:10:32.425Z,102363.16
2023-04-03T03:12:58.808Z,102360.91
2023-04-03T03:15:25.341Z,102358.16
2023-04-03T03:17:51.754Z,102361.47
2023-04-03T03:20:18.192Z,102359.78
2023-04-03T03:22:45.236Z,102363.53
2023-04-03T03:25:11.616Z,102361.34
2023-04-03T03:27:38.034Z,102361.06
2023-04-03T03:30:04.841Z,102363.34
2023-04-03T03:32:31.452Z,102356.63
2023-04-03T03:34:57.826Z,102359.94
2023-04-03T03:37:24.243Z,102355.84
2023-04-03T03:39:50.788Z,102361.78
2023-04-03T03:42:17.591Z,102350.63
2023-04-03T03:44:44.043Z,102357.34
2023-04-03T03:47:11.759Z,102354.59
2023-04-03T03:49:38.706Z,102350.28
2023-04-03T03:52:05.095Z,102354.50
2023-04-03T03:54:31.592Z,102346.31
2023-04-03T03:56:58.171Z,102343.69
2023-04-03T03:59:25.914Z,102350.97
2023-04-03T04:01:52.916Z,102349.50
2023-04-03T04:04:19.847Z,102348.09
2023-04-03T04:06:46.639Z,102353.06
2023-04-03T04:09:13.140Z,102351.63
2023-04-03T04:11:41.303Z,102361.00
2023-04-03T04:14:11.426Z,102360.03
2023-04-03T04:16:38.331Z,102362.06
2023-04-03T04:19:10.665Z,102373.31
2023-04-03T04:21:38.305Z,102368.13
2023-04-03T04:24:04.753Z,102368.81
2023-04-03T04:26:31.269Z,102375.88
2023-04-03T04:28:57.718Z,102370.72
2023-04-03T04:31:24.193Z,102370.56
2023-04-03T04:33:51.278Z,102373.81
2023-04-03T04:36:18.220Z,102380.31
2023-04-03T04:38:46.717Z,102375.31
2023-04-03T04:41:13.514Z,102385.88
2023-04-03T04:43:40.483Z,102379.91
2023-04-03T04:46:07.220Z,102385.06
2023-04-03T04:48:38.139Z,102392.38
2023-04-03T04:51:05.695Z,102383.94
2023-04-03T04:53:32.820Z,102391.13
2023-04-03T04:55:59.365Z,102394.81
2023-04-03T04:58:26.683Z,102398.78
2023-04-03T05:00:53.132Z,102397.84
2023-04-03T05:03:19.718Z,102397.28
2023-04-03T05:05:46.258Z,102396.63
2023-04-03T05:08:13.235Z,102404.34
2023-04-03T05:10:42.454Z,102405.50
2023-04-03T05:13:10.683Z,102408.56
2023-04-03T05:15:37.284Z,102405.25
2023-04-03T05:18:04.219Z,102407.72
2023-04-03T05:20:30.955Z,102411.84
2023-04-03T05:22:57.900Z,102409.38
2023-04-03T05:25:24.331Z,102413.91
2023-04-03T05:27:53.644Z,102412.19
2023-04-03T05:30:20.163Z,102426.06
2023-04-03T05:32:47.562Z,102414.94
2023-04-03T05:35:20.924Z,102426.09
2023-04-03T05:37:51.125Z,102422.44
2023-04-03T05:40:19.311Z,102421.50
2023-04-03T05:42:48.402Z,102432.78
2023-04-03T05:45:16.317Z,102432.78
2023-04-03T05:47:43.328Z,102427.69
2023-04-03T05:50:09.913Z,102434.41
2023-04-03T05:52:36.337Z,102446.75
2023-04-03T05:55:02.998Z,102449.75
2023-04-03T05:57:31.959Z,102454.66
2023-04-03T05:59:58.479Z,102456.81
2023-04-03T06:02:25.838Z,102451.22
2023-04-03T06:04:53.082Z,102453.38
2023-04-03T06:07:21.955Z,102458.41
2023-04-03T06:09:49.522Z,102454.72
2023-04-03T06:12:16.300Z,102452.66
2023-04-03T06:14:43.133Z,102454.84
2023-04-03T06:17:10.152Z,102457.38
2023-04-03T06:19:36.796Z,102457.69
2023-04-03T06:22:03.924Z,102457.09
2023-04-03T06:24:31.143Z,102453.56
2023-04-03T06:26:57.623Z,102450.97
2023-04-03T06:29:23.993Z,102455.53
2023-04-03T06:31:50.588Z,102454.06
2023-04-03T06:34:18.160Z,102446.47
2023-04-03T06:36:44.626Z,102446.31
2023-04-03T06:39:10.986Z,102448.59
2023-04-03T06:41:37.430Z,102446.22
2023-04-03T06:44:04.442Z,102443.69
2023-04-03T06:46:31.590Z,102440.47
2023-04-03T06:48:58.114Z,102451.09
2023-04-03T06:51:24.518Z,102453.53
2023-04-03T06:53:51.534Z,102460.16
2023-04-03T06:56:17.918Z,102471.69
2023-04-03T06:58:44.292Z,102467.84
2023-04-03T07:01:10.877Z,102475.22
2023-04-03T07:03:37.653Z,102475.78
2023-04-03T07:06:04.321Z,102473.81
2023-04-03T07:08:30.677Z,102466.44
2023-04-03T07:10:57.291Z,102463.50
2023-04-03T07:13:23.654Z,102456.75
2023-04-03T07:15:50.199Z,102467.56
2023-04-03T07:18:17.911Z,102476.38
2023-04-03T07:20:44.305Z,102479.28
2023-04-03T07:23:11.382Z,102481.63
2023-04-03T07:25:38.684Z,102480.06
2023-04-03T07:28:05.374Z,102483.25
2023-04-03T07:30:31.842Z,102488.16
2023-04-03T07:32:58.289Z,102497.81
2023-04-03T07:35:24.683Z,102487.38
2023-04-03T07:37:51.238Z,102483.84
2023-04-03T07:40:19.091Z,102485.63
2023-04-03T07:42:46.294Z,102485.88
2023-04-03T07:45:12.941Z,102500.47
2023-04-03T07:47:39.312Z,102499.91
2023-04-03T07:50:05.741Z,102491.78
2023-04-03T07:52:32.069Z,102489.91
2023-04-03T07:54:58.509Z,102496.22
2023-04-03T07:57:24.921Z,102492.66
2023-04-03T07:59:51.357Z,102488.94
2023-04-03T08:02:17.735Z,102496.84
2023-04-03T08:04:44.242Z,102493.81
2023-04-03T08:07:10.684Z,102488.88
2023-04-03T08:09:37.066Z,102487.22
2023-04-03T08:12:03.421Z,102492.59
2023-04-03T08:14:29.853Z,102491.50
2023-04-03T08:16:56.873Z,102496.81
2023-04-03T08:19:26.571Z,102500.00
2023-04-03T08:21:53.329Z,102488.59
2023-04-03T08:24:19.694Z,102486.63
2023-04-03T08:26:46.105Z,102491.19
2023-04-03T08:29:12.660Z,102491.72
2023-04-03T08:31:39.110Z,102492.16
2023-04-03T08:34:06.299Z,102497.38
2023-04-03T08:36:32.754Z,102507.53
2023-04-03T08:38:59.221Z,102502.47
2023-04-03T08:41:31.257Z,102493.81
2023-04-03T08:43:58.667Z,102496.94
2023-04-03T08:46:25.194Z,102500.09
2023-04-03T08:48:51.605Z,102503.75
2023-04-03T08:51:18.107Z,102497.19
2023-04-03T08:53:44.521Z,102508.94
2023-04-03T08:56:10.870Z,102505.84
2023-04-03T08:58:37.881Z,102500.81
2023-04-03T09:01:04.972Z,102495.75
2023-04-03T09:03:31.922Z,102495.66
2023-04-03T09:05:58.347Z,102498.13
2023-04-03T09:08:24.895Z,102500.06
2023-04-03T09:10:51.388Z,102495.53
2023-04-03T09:13:18.072Z,102497.06
2023-04-03T09:15:45.035Z,102494.63
2023-04-03T09:18:12.007Z,102514.28
2023-04-03T09:20:38.668Z,102489.53
2023-04-03T09:23:05.311Z,102500.63
2023-04-03T09:25:32.242Z,102500.00
2023-04-03T09:27:58.658Z,102522.03
2023-04-03T09:30:25.068Z,102520.13
2023-04-03T09:32:51.474Z,102506.63
2023-04-03T09:35:23.379Z,102507.66
2023-04-03T09:37:57.736Z,102506.34
2023-04-03T09:40:24.122Z,102497.34
2023-04-03T09:42:55.497Z,102503.97
2023-04-03T09:45:28.366Z,102508.03
2023-04-03T09:47:54.853Z,102496.25
2023-04-03T09:50:21.359Z,102496.38
2023-04-03T09:52:47.879Z,102495.09
2023-04-03T09:55:14.366Z,102505.94
2023-04-03T09:57:41.042Z,102491.88
2023-04-03T10:00:12.127Z,102505.03
2023-04-03T10:02:38.835Z,102503.69
2023-04-03T10:07:34.660Z,102489.00
2023-04-03T10:10:02.531Z,102489.88
2023-04-03T10:12:28.932Z,102485.22
2023-04-03T10:14:56.448Z,102500.31
2023-04-03T10:17:24.348Z,102498.25
2023-04-03T10:19:50.943Z,102473.72
2023-04-03T10:22:17.298Z,102493.63
2023-04-03T10:24:43.687Z,102492.47
2023-04-03T10:27:10.255Z,102487.00
2023-04-03T10:29:37.372Z,102495.44
2023-04-03T10:32:04.018Z,102481.19
2023-04-03T10:34:30.375Z,102481.34
2023-04-03T10:36:57.875Z,102467.75
2023-04-03T10:39:25.598Z,102472.94
2023-04-03T10:41:55.792Z,102464.72
2023-04-03T10:44:24.612Z,102463.53
2023-04-03T10:46:51.033Z,102442.41
2023-04-03T10:49:17.433Z,102463.53
2023-04-03T10:51:43.862Z,102452.75
2023-04-03T10:54:10.694Z,102463.53
2023-04-03T10:56:37.186Z,102457.16
2023-04-03T10:59:03.991Z,102460.50
2023-04-03T11:01:30.422Z,102457.94
2023-04-03T11:03:57.755Z,102427.56
2023-04-03T11:06:24.751Z,102448.19
2023-04-03T11:08:52.381Z,102428.91
2023-04-03T11:11:18.975Z,102453.69
2023-04-03T11:13:45.444Z,102433.19
2023-04-03T11:16:11.853Z,102431.56
2023-04-03T11:18:38.224Z,102416.69
2023-04-03T11:21:05.059Z,102423.81
2023-04-03T11:23:42.317Z,102428.50
2023-04-03T11:26:15.629Z,102412.13
2023-04-03T11:28:42.503Z,102407.28
2023-04-03T11:31:08.972Z,102411.06
2023-04-03T11:33:35.358Z,102409.72
2023-04-03T11:36:05.485Z,102413.75
2023-04-03T11:38:40.478Z,102418.19
2023-04-03T11:41:06.864Z,102417.16
2023-04-03T11:43:33.292Z,102419.13
2023-04-03T11:46:00.568Z,102416.06
2023-04-03T11:48:27.131Z,102412.72
2023-04-03T11:50:53.505Z,102411.59
2023-04-03T11:53:19.920Z,102417.50
2023-04-03T11:55:46.538Z,102412.56
2023-04-03T11:58:14.234Z,102408.59
2023-04-03T12:00:41.367Z,102393.16
2023-04-03T12:03:08.281Z,102406.25
2023-04-03T12:05:34.827Z,102408.16
2023-04-03T12:08:01.260Z,102402.78
2023-04-03T12:10:32.088Z,102398.38
2023-04-03T12:13:00.085Z,102394.63
2023-04-03T12:15:27.210Z,102374.31
2023-04-03T12:17:53.689Z,102397.97
2023-04-03T12:20:20.096Z,102392.09
2023-04-03T12:22:46.470Z,102377.47
2023-04-03T12:25:12.932Z,102353.94
2023-04-03T12:27:39.329Z,102385.22
2023-04-03T12:30:05.817Z,102373.47
2023-04-03T12:32:32.357Z,102379.91
2023-04-03T12:34:58.739Z,102357.38
2023-04-03T12:37:25.116Z,102374.16
2023-04-03T12:39:51.525Z,102365.06
2023-04-03T12:42:18.142Z,102363.13
2023-04-03T12:44:44.553Z,102363.31
2023-04-03T12:47:10.969Z,102368.00
2023-04-03T12:49:37.488Z,102349.41
2023-04-03T12:52:03.891Z,102353.09
2023-04-03T12:54:30.263Z,102353.22
2023-04-03T12:56:56.675Z,102347.94
2023-04-03T12:59:23.282Z,102341.47
2023-04-03T13:01:49.720Z,102344.75
2023-04-03T13:04:16.272Z,102339.50
2023-04-03T13:06:42.662Z,102330.25
2023-04-03T13:09:09.309Z,102330.69
2023-04-03T13:11:35.718Z,102340.56
2023-04-03T13:14:02.944Z,102340.06
2023-04-03T13:16:29.434Z,102340.00
2023-04-03T13:18:55.819Z,102338.03
2023-04-03T13:21:22.674Z,102338.84
2023-04-03T13:23:50.173Z,102335.59
2023-04-03T13:26:18.276Z,102314.53
2023-04-03T13:28:44.668Z,102320.41
2023-04-03T13:31:11.684Z,102336.34
2023-04-03T13:33:41.360Z,102324.59
2023-04-03T13:36:07.830Z,102324.13
2023-04-03T13:38:34.897Z,102328.16
2023-04-03T13:41:05.406Z,102320.91
2023-04-03T13:43:31.810Z,102313.09
2023-04-03T13:45:58.274Z,102323.75
2023-04-03T13:48:24.940Z,102318.28
2023-04-03T13:50:51.350Z,102311.53
2023-04-03T13:53:17.751Z,102319.59
2023-04-03T13:55:44.373Z,102307.69
2023-04-03T13:58:10.947Z,102306.59
2023-04-03T14:00:38.347Z,102307.31
2023-04-03T14:03:04.793Z,102306.09
2023-04-03T14:05:31.381Z,102294.91
2023-04-03T14:07:57.939Z,102303.13
2023-04-03T14:10:24.338Z,102289.19
2023-04-03T14:12:52.092Z,102305.31
2023-04-03T14:15:18.789Z,102294.06
2023-04-03T14:17:45.484Z,102289.03
2023-04-03T14:20:11.930Z,102288.88
2023-04-03T14:22:38.296Z,102286.66
2023-04-03T14:25:04.812Z,102269.25
2023-04-03T14:27:31.235Z,102274.34
2023-04-03T14:29:57.646Z,102285.75
2023-04-03T14:32:24.111Z,102269.13
2023-04-03T14:34:50.946Z,102264.75
2023-04-03T14:37:17.332Z,102270.59
2023-04-03T14:39:43.866Z,102274.06
2023-04-03T14:42:10.285Z,102264.97
2023-04-03T14:44:36.807Z,102277.47
2023-04-03T14:47:03.611Z,102258.94
2023-04-03T14:49:30.431Z,102265.38
2023-04-03T14:51:56.951Z,102267.69
2023-04-03T14:54:26.616Z,102256.53
2023-04-03T14:56:53.152Z,102258.69
2023-04-03T14:59:21.061Z,102250.84
2023-04-03T15:01:47.568Z,102259.34
2023-04-03T15:04:14.207Z,102256.34
2023-04-03T15:06:40.677Z,102261.97
2023-04-03T15:09:07.062Z,102256.94
2023-04-03T15:11:33.444Z,102263.78
2023-04-03T15:13:59.777Z,102257.56
2023-04-03T15:16:26.178Z,102243.38
2023-04-03T15:18:52.558Z,102253.63
2023-04-03T15:21:18.962Z,102245.16
2023-04-03T15:23:45.313Z,102245.63
2023-04-03T15:26:11.668Z,102246.44
2023-04-03T15:28:38.164Z,102253.25
2023-04-03T15:31:04.900Z,102245.63
2023-04-03T15:33:31.304Z,102251.00
2023-04-03T15:36:06.635Z,102260.38
2023-04-03T15:38:34.289Z,102250.28
2023-04-03T15:41:00.934Z,102246.19
2023-04-03T15:43:27.367Z,102237.25
2023-04-03T15:45:53.819Z,102242.16
2023-04-03T15:48:20.233Z,102249.06
2023-04-03T15:50:46.593Z,102251.81
2023-04-03T15:53:12.962Z,102252.91
2023-04-03T15:55:39.590Z,102240.28
2023-04-03T15:58:06.467Z,102246.53
2023-04-03T16:00:33.034Z,102266.84
2023-04-03T16:02:59.465Z,102255.50
2023-04-03T16:05:26.135Z,102248.25
2023-04-03T16:07:52.575Z,102256.81
2023-04-03T16:10:18.949Z,102268.25
2023-04-03T16:12:45.715Z,102263.84
2023-04-03T16:15:12.156Z,102272.56
2023-04-03T16:17:38.609Z,102263.69
2023-04-03T16:20:05.182Z,102249.50
2023-04-03T16:22:31.635Z,102251.16
2023-04-03T16:24:58.057Z,102251.53
2023-04-03T16:27:28.766Z,102263.03
2023-04-03T16:29:55.642Z,102256.72
2023-04-03T16:32:22.088Z,102260.19
2023-04-03T16:34:48.497Z,102258.53
2023-04-03T16:37:15.515Z,102258.78
2023-04-03T16:39:41.910Z,102266.28
2023-04-03T16:42:10.151Z,102259.03
2023-04-03T16:44:36.610Z,102264.84
2023-04-03T16:47:03.045Z,102255.75
2023-04-03T16:49:33.582Z,102272.47
2023-04-03T16:52:00.085Z,102272.56
2023-04-03T16:54:26.556Z,102270.25
2023-04-03T16:56:52.913Z,102274.66
2023-04-03T16:59:19.338Z,102274.31
2023-04-03T17:01:45.726Z,102272.88
2023-04-03T17:04:12.336Z,102273.91
2023-04-03T17:06:38.842Z,102269.69
2023-04-03T17:09:05.404Z,102285.91
2023-04-03T17:11:31.806Z,102265.22
2023-04-03T17:13:58.208Z,102281.97
2023-04-03T17:16:24.603Z,102279.16
2023-04-03T17:18:51.097Z,102279.16
2023-04-03T17:21:17.484Z,102293.44
2023-04-03T17:23:43.820Z,102291.59
2023-04-03T17:26:10.272Z,102287.41
2023-04-03T17:28:36.992Z,102288.81
2023-04-03T17:31:03.497Z,102289.09
2023-04-03T17:33:32.978Z,102278.03
2023-04-03T17:35:59.527Z,102285.50
2023-04-03T17:38:25.988Z,102282.97
2023-04-03T17:40:52.441Z,102280.69
2023-04-03T17:43:18.870Z,102284.50
2023-04-03T17:45:45.321Z,102289.19
2023-04-03T17:48:11.763Z,102281.63
2023-04-03T17:50:38.186Z,102275.31
2023-04-03T17:53:05.159Z,102278.22
2023-04-03T17:55:31.491Z,102280.66
2023-04-03T17:57:57.986Z,102287.78
2023-04-03T18:00:24.565Z,102290.84
2023-04-03T18:02:51.004Z,102295.75
2023-04-03T18:05:17.399Z,102291.06
2023-04-03T18:07:44.193Z,102293.28
2023-04-03T18:10:10.611Z,102297.06
2023-04-03T18:12:37.492Z,102301.28
2023-04-03T18:15:04.371Z,102295.53
2023-04-03T18:17:31.445Z,102299.03
2023-04-03T18:19:57.874Z,102304.97
2023-04-03T18:22:24.198Z,102302.75
2023-04-03T18:24:50.722Z,102301.84
2023-04-03T18:27:17.108Z,102300.06
2023-04-03T18:29:43.599Z,102300.03
2023-04-03T18:32:10.867Z,102299.97
2023-04-03T18:34:37.941Z,102296.06
2023-04-03T18:37:04.407Z,102303.66
2023-04-03T18:39:31.384Z,102303.81
2023-04-03T18:41:57.763Z,102298.03
2023-04-03T18:44:24.173Z,102296.81
2023-04-03T18:46:50.767Z,102300.88
2023-04-03T18:49:18.234Z,102299.72
2023-04-03T18:51:44.672Z,102308.59
2023-04-03T18:54:11.357Z,102305.44
2023-04-03T18:56:38.336Z,102310.16
2023-04-03T18:59:04.744Z,102304.47
2023-04-03T19:01:31.322Z,102307.38
2023-04-03T19:03:57.777Z,102311.56
2023-04-03T19:06:24.199Z,102307.19
2023-04-03T19:08:51.788Z,102307.63
2023-04-03T19:11:18.566Z,102314.75
2023-04-03T19:13:57.848Z,102317.72
2023-04-03T19:16:32.188Z,102322.66
2023-04-03T19:18:58.711Z,102321.69
2023-04-03T19:21:25.110Z,102325.16
2023-04-03T19:23:51.558Z,102319.09
2023-04-03T19:26:18.373Z,102327.09
2023-04-03T19:28:44.796Z,102330.75
2023-04-03T19:31:11.381Z,102322.19
2023-04-03T19:33:37.967Z,102320.28
2023-04-03T19:36:04.390Z,102321.13
2023-04-03T19:38:30.812Z,102323.34
2023-04-03T19:40:57.516Z,102321.94
2023-04-03T19:43:23.939Z,102330.44
2023-04-03T19:45:50.313Z,102319.84
2023-04-03T19:48:16.819Z,102322.53
2023-04-03T19:50:43.230Z,102328.38
2023-04-03T19:53:11.759Z,102327.00
2023-04-03T19:55:38.790Z,102317.69
2023-04-03T19:58:05.800Z,102327.53
2023-04-03T20:00:32.226Z,102331.41
2023-04-03T20:02:58.796Z,102326.38
2023-04-03T20:05:25.309Z,102327.53
2023-04-03T20:07:51.697Z,102326.72
2023-04-03T20:10:18.137Z,102328.38
2023-04-03T20:12:45.212Z,102319.06
2023-04-03T20:15:11.674Z,102321.19
2023-04-03T20:17:38.204Z,102314.03
2023-04-03T20:20:04.741Z,102318.78
2023-04-03T20:22:31.599Z,102322.84
2023-04-03T20:25:05.198Z,102315.84
2023-04-03T20:27:33.149Z,102311.91
2023-04-03T20:30:01.155Z,102317.63
2023-04-03T20:32:28.758Z,102310.94
2023-04-03T20:35:03.491Z,102324.22
2023-04-03T20:37:31.060Z,102315.84
2023-04-03T20:39:57.567Z,102317.28
2023-04-03T20:42:25.974Z,102313.53
2023-04-03T20:44:52.393Z,102323.03
2023-04-03T20:47:18.974Z,102323.25
2023-04-03T20:49:49.338Z,102315.94
2023-04-03T20:52:15.701Z,102309.97
2023-04-03T20:54:42.056Z,102319.78
2023-04-03T20:57:08.446Z,102313.22
2023-04-03T20:59:35.075Z,102316.75
2023-04-03T21:02:01.518Z,102309.94
2023-04-03T21:04:30.366Z,102312.63
2023-04-03T21:06:57.067Z,102325.25
2023-04-03T21:09:23.458Z,102314.84
2023-04-03T21:11:49.829Z,102320.78
2023-04-03T21:14:17.659Z,102312.44
2023-04-03T21:16:44.576Z,102314.25
2023-04-03T21:19:11.026Z,102319.63
2023-04-03T21:21:37.571Z,102316.94
2023-04-03T21:24:06.592Z,102316.88
2023-04-03T21:26:32.966Z,102317.53
2023-04-03T21:28:59.408Z,102312.69
2023-04-03T21:31:28.835Z,102313.78
2023-04-03T21:33:59.346Z,102321.56
2023-04-03T21:36:26.308Z,102331.28
2023-04-03T21:38:52.914Z,102330.94
2023-04-03T21:41:19.371Z,102333.19
2023-04-03T21:43:46.326Z,102331.88
2023-04-03T21:46:12.764Z,102340.84
2023-04-03T21:48:39.305Z,102329.31
2023-04-03T21:51:07.838Z,102337.25
2023-04-03T21:53:34.498Z,102337.69
2023-04-03T21:56:02.476Z,102342.34
2023-04-03T21:58:32.306Z,102325.50
2023-04-03T22:00:59.441Z,102333.97
2023-04-03T22:03:25.926Z,102323.66
2023-04-03T22:05:52.400Z,102331.09
2023-04-03T22:08:18.801Z,102327.53
2023-04-03T22:10:45.260Z,102327.88
2023-04-03T22:13:11.648Z,102324.53
2023-04-03T22:15:44.123Z,102318.56
2023-04-03T22:18:10.933Z,102321.44
2023-04-03T22:20:37.304Z,102314.75
2023-04-03T22:23:03.796Z,102312.22
2023-04-03T22:25:31.062Z,102312.09
2023-04-03T22:27:58.118Z,102311.84
2023-04-03T22:30:26.148Z,102304.00
2023-04-03T22:32:52.785Z,102301.59
2023-04-03T22:35:19.793Z,102297.69
2023-04-03T22:37:46.428Z,102294.25
2023-04-03T22:40:14.127Z,102297.44
2023-04-03T22:42:40.553Z,102307.69
2023-04-03T22:45:07.304Z,102299.72
2023-04-03T22:47:33.662Z,102295.91
2023-04-03T22:50:00.050Z,102298.91
2023-04-03T22:52:26.420Z,102306.16
2023-04-03T22:54:52.805Z,102293.56
2023-04-03T22:57:19.283Z,102296.91
2023-04-03T22:59:45.731Z,102300.28
2023-04-03T23:02:12.823Z,102304.31
2023-04-03T23:04:39.397Z,102313.31
2023-04-03T23:07:05.857Z,102315.78
2023-04-03T23:09:32.231Z,102311.28
2023-04-03T23:11:58.609Z,102308.13
2023-04-03T23:14:25.006Z,102304.44
2023-04-03T23:16:51.457Z,102304.03
2023-04-03T23:19:17.920Z,102304.88
2023-04-03T23:21:45.733Z,102308.97
2023-04-03T23:24:12.908Z,102305.81
2023-04-03T23:26:39.286Z,102307.84
2023-04-03T23:29:06.088Z,102305.09
2023-04-03T23:31:32.548Z,102306.44
2023-04-03T23:33:58.965Z,102302.59
2023-04-03T23:36:25.359Z,102313.81
2023-04-03T23:38:51.739Z,102309.16
2023-04-03T23:41:18.083Z,102298.75
2023-04-03T23:43:46.405Z,102295.72
2023-04-03T23:46:12.926Z,102306.41
2023-04-03T23:48:39.375Z,102305.09
2023-04-03T23:51:05.702Z,102304.41
2023-04-03T23:53:32.403Z,102306.53
2023-04-03T23:55:58.803Z,102297.47
2023-04-03T23:58:25.196Z,102306.03
